Time;durP1;ratioP1;P1;durP2;ratioP2;P2;SDS_P1;SDS_P2;PMS_P1;PMS_P2;Temp;Humidity;BMP_temperature;BMP_pressure;BME280_temperature;BME280_humidity;BME280_pressure;Samples;Min_cycle;Max_cycle;Signal;HPM_P1;HPM_P2
2022/07/22 00:01:23;;;;;;;20.38;11.00;;;;;;;14.74;98.98;102059.81;4990546;28;20033;-59
2022/07/22 00:03:48;;;;;;;22.30;10.77;;;;;;;14.66;99.26;102067.72;4990592;28;20110;-61
2022/07/22 00:06:14;;;;;;;18.50;10.57;;;;;;;14.64;99.52;102063.56;4990663;28;20561;-60
2022/07/22 00:08:39;;;;;;;21.60;11.32;;;;;;;14.60;99.90;102062.50;4990750;28;20109;-60
2022/07/22 00:11:05;;;;;;;21.05;11.02;;;;;;;14.56;99.88;102065.09;4990819;28;20037;-60
2022/07/22 00:13:31;;;;;;;21.50;11.60;;;;;;;14.48;100.00;102066.59;4990707;28;20041;-60
2022/07/22 00:15:57;;;;;;;20.10;11.10;;;;;;;14.48;100.00;102066.59;4990775;28;20049;-60
2022/07/22 00:18:22;;;;;;;25.13;11.90;;;;;;;14.54;100.00;102058.19;4991261;28;20132;-60
2022/07/22 00:20:47;;;;;;;21.88;11.88;;;;;;;14.50;100.00;102055.16;4990636;28;20100;-60
2022/07/22 00:23:13;;;;;;;24.85;11.82;;;;;;;14.49;100.00;102056.31;4990595;28;20022;-60
2022/07/22 00:25:38;;;;;;;21.42;11.50;;;;;;;14.44;100.00;102057.22;4972897;28;20018;-60
2022/07/22 00:28:04;;;;;;;20.88;11.90;;;;;;;14.39;100.00;102062.84;4990551;28;20066;-60
2022/07/22 00:30:29;;;;;;;21.27;11.52;;;;;;;14.39;100.00;102051.72;4990609;28;20038;-60
2022/07/22 00:32:55;;;;;;;22.58;11.02;;;;;;;14.37;100.00;102056.75;4990539;28;20029;-60
2022/07/22 00:35:20;;;;;;;19.23;11.35;;;;;;;14.35;100.00;102054.28;4993161;28;20109;-60
2022/07/22 00:37:45;;;;;;;21.60;10.95;;;;;;;14.38;100.00;102058.41;4993954;28;20328;-61
2022/07/22 00:40:11;;;;;;;21.08;10.88;;;;;;;14.42;100.00;102058.63;4993926;28;20026;-60
2022/07/22 00:42:36;;;;;;;21.17;11.32;;;;;;;14.40;100.00;102045.00;4994130;28;20045;-60
2022/07/22 00:45:03;;;;;;;22.38;12.00;;;;;;;14.38;100.00;102049.25;4993970;28;20335;-60
2022/07/22 00:47:28;;;;;;;20.35;11.45;;;;;;;14.47;100.00;102050.19;4994057;28;20098;-61
2022/07/22 00:49:54;;;;;;;19.38;11.43;;;;;;;14.53;100.00;102050.94;4994285;28;20038;-60
2022/07/22 00:52:19;;;;;;;21.77;11.80;;;;;;;14.59;100.00;102052.50;4993888;28;20018;-60
2022/07/22 00:54:45;;;;;;;20.90;11.45;;;;;;;14.64;100.00;102049.66;4993865;28;20177;-60
2022/07/22 00:57:10;;;;;;;20.98;11.05;;;;;;;14.65;100.00;102052.13;4993744;28;20026;-60
2022/07/22 00:59:36;;;;;;;22.70;11.55;;;;;;;14.68;100.00;102045.13;4993767;28;20027;-60
2022/07/22 01:02:02;;;;;;;21.45;10.82;;;;;;;14.76;100.00;102049.19;4993692;28;20030;-60
2022/07/22 01:04:27;;;;;;;21.27;11.45;;;;;;;14.79;100.00;102052.19;4993379;28;20053;-60
2022/07/22 01:06:52;;;;;;;21.02;10.77;;;;;;;14.83;100.00;102041.25;4993645;28;20101;-60
2022/07/22 01:09:18;;;;;;;20.38;9.90;;;;;;;14.85;99.63;102039.00;4993466;28;20050;-60
2022/07/22 01:11:43;;;;;;;20.58;9.93;;;;;;;14.88;99.32;102046.72;4993408;28;20030;-60
2022/07/22 01:14:09;;;;;;;23.23;10.48;;;;;;;14.89;98.87;102037.25;4993378;28;20056;-60
2022/07/22 01:16:35;;;;;;;22.80;10.90;;;;;;;14.92;98.79;102047.78;4975591;28;20034;-60
2022/07/22 01:19:01;;;;;;;22.63;11.07;;;;;;;14.93;98.53;102040.22;4992901;28;20549;-60
2022/07/22 01:21:26;;;;;;;24.02;11.10;;;;;;;14.95;98.58;102038.81;4992922;28;20033;-60
2022/07/22 01:23:52;;;;;;;21.00;10.38;;;;;;;14.98;98.49;102023.44;4992926;28;20077;-60
2022/07/22 01:26:17;;;;;;;21.23;10.55;;;;;;;15.01;98.61;102030.34;4993147;28;20076;-60
2022/07/22 01:28:43;;;;;;;20.77;10.70;;;;;;;15.00;98.39;102032.31;4992897;28;20030;-60
2022/07/22 01:31:09;;;;;;;22.33;10.65;;;;;;;15.00;98.30;102026.75;4993001;28;20035;-60
2022/07/22 01:33:35;;;;;;;21.60;10.57;;;;;;;14.98;97.73;102037.38;4992858;28;20328;-61
2022/07/22 01:36:00;;;;;;;22.77;11.00;;;;;;;14.91;98.08;102034.97;4992908;28;20038;-60
2022/07/22 01:38:26;;;;;;;23.15;10.18;;;;;;;14.92;98.16;102033.03;4992885;28;20101;-60
2022/07/22 01:40:52;;;;;;;20.10;10.15;;;;;;;14.95;98.28;102024.88;4992727;28;20030;-61
2022/07/22 01:43:19;;;;;;;22.10;11.05;;;;;;;14.94;97.57;102023.22;4992625;28;20033;-60
2022/07/22 01:45:45;;;;;;;21.80;10.90;;;;;;;14.92;98.06;102024.69;4991709;28;20418;-60
2022/07/22 01:48:10;;;;;;;20.05;10.23;;;;;;;14.94;97.65;102028.81;4992522;28;20493;-60
2022/07/22 01:50:36;;;;;;;21.90;10.35;;;;;;;14.94;97.15;102031.59;4992764;28;20026;-60
2022/07/22 01:53:02;;;;;;;21.65;10.95;;;;;;;14.87;97.20;102028.38;4992775;28;20427;-60
2022/07/22 01:55:27;;;;;;;20.13;11.32;;;;;;;14.85;97.60;102021.44;4992613;28;20086;-60
2022/07/22 01:57:52;;;;;;;23.42;11.55;;;;;;;14.82;97.69;102032.09;4992294;28;20042;-60
2022/07/22 02:00:18;;;;;;;21.70;11.25;;;;;;;14.81;97.71;102033.22;4992261;28;20022;-60
2022/07/22 02:02:43;;;;;;;21.10;11.38;;;;;;;14.82;97.83;102034.03;4992104;28;20045;-60
2022/07/22 02:05:09;;;;;;;21.48;10.93;;;;;;;14.84;97.75;102028.16;4992143;28;20451;-60
2022/07/22 02:07:34;;;;;;;21.27;10.88;;;;;;;14.81;97.68;102029.59;4992129;28;20034;-60
2022/07/22 02:10:00;;;;;;;20.70;11.20;;;;;;;14.80;98.02;102036.28;4992400;28;20033;-60
2022/07/22 02:12:25;;;;;;;23.05;11.07;;;;;;;14.76;98.26;102027.72;4992116;28;20117;-60
2022/07/22 02:14:51;;;;;;;24.25;11.07;;;;;;;14.78;98.46;102030.22;4992068;28;20102;-60
2022/07/22 02:17:16;;;;;;;22.95;11.23;;;;;;;14.82;98.43;102025.69;4991624;28;20383;-61
2022/07/22 02:19:42;;;;;;;22.35;11.57;;;;;;;14.71;97.96;102022.25;4974305;28;20039;-60
2022/07/22 02:22:07;;;;;;;23.50;10.88;;;;;;;14.79;98.23;102026.28;4991810;28;20041;-60
2022/07/22 02:24:33;;;;;;;22.52;11.00;;;;;;;14.81;98.43;102024.88;4991732;28;20059;-60
2022/07/22 02:26:58;;;;;;;20.73;11.40;;;;;;;14.79;98.16;102029.91;4991725;28;20034;-60
2022/07/22 02:29:24;;;;;;;19.98;10.82;;;;;;;14.78;98.50;102033.81;4991607;28;20046;-60
2022/07/22 02:31:49;;;;;;;21.52;11.30;;;;;;;14.75;98.77;102031.63;4991581;28;20470;-60
2022/07/22 02:34:15;;;;;;;21.38;11.57;;;;;;;14.76;98.66;102032.47;4992081;28;20034;-60
2022/07/22 02:36:40;;;;;;;23.02;12.18;;;;;;;14.75;98.36;102028.03;4991658;28;20549;-60
2022/07/22 02:39:05;;;;;;;28.88;11.98;;;;;;;14.71;98.46;102025.03;4973890;28;20485;-60
2022/07/22 02:41:33;;;;;;;21.77;12.60;;;;;;;14.65;98.85;102015.91;4991830;28;20026;-60
2022/07/22 02:43:58;;;;;;;21.30;11.95;;;;;;;14.68;99.31;102024.84;4991477;28;20038;-60
2022/07/22 02:46:24;;;;;;;23.58;12.10;;;;;;;14.66;99.01;102019.50;4991629;28;20037;-60
2022/07/22 02:48:50;;;;;;;22.52;11.30;;;;;;;14.74;99.19;102026.38;4991537;28;20049;-60
2022/07/22 02:51:16;;;;;;;22.05;11.55;;;;;;;14.75;98.92;102028.84;4974035;28;20505;-60
2022/07/22 02:53:41;;;;;;;22.50;11.85;;;;;;;14.78;98.63;102024.66;4991729;28;20069;-60
2022/07/22 02:56:07;;;;;;;24.20;11.38;;;;;;;14.77;98.19;102021.03;4991664;28;20027;-61
2022/07/22 02:58:33;;;;;;;21.02;11.07;;;;;;;14.75;98.40;102026.06;4991497;28;20030;-60
2022/07/22 03:00:58;;;;;;;21.30;11.50;;;;;;;14.75;98.47;102030.81;4991400;28;20155;-60
2022/07/22 03:03:23;;;;;;;25.85;11.68;;;;;;;14.69;98.85;102021.72;4991182;28;20026;-60
2022/07/22 03:05:49;;;;;;;20.52;11.00;;;;;;;14.72;98.76;102023.06;4991405;28;20030;-60
2022/07/22 03:08:15;;;;;;;19.52;10.82;;;;;;;14.75;98.14;102028.84;4991522;28;20588;-61
2022/07/22 03:10:40;;;;;;;21.77;10.43;;;;;;;14.81;97.58;102022.06;4991249;28;20408;-60
2022/07/22 03:13:05;;;;;;;23.27;10.98;;;;;;;14.81;97.62;102022.06;4991410;28;20029;-60
2022/07/22 03:15:30;;;;;;;21.35;10.90;;;;;;;14.77;97.23;102009.06;4991058;28;20378;-60
2022/07/22 03:17:56;;;;;;;19.73;11.10;;;;;;;14.82;96.99;102020.94;4990836;28;20050;-60
2022/07/22 03:20:21;;;;;;;23.45;11.10;;;;;;;14.77;96.99;102006.28;4991247;28;20023;-60
2022/07/22 03:22:46;;;;;;;19.52;10.82;;;;;;;14.85;97.12;102025.06;4991029;28;20022;-60
2022/07/22 03:25:12;;;;;;;20.42;10.77;;;;;;;14.87;97.01;102010.81;4990929;28;20553;-60
2022/07/22 03:27:37;;;;;;;21.88;11.25;;;;;;;14.87;96.99;102008.88;4990953;28;20088;-60
2022/07/22 03:30:04;;;;;;;20.83;11.30;;;;;;;14.85;96.15;102008.34;4990838;28;20022;-60
2022/07/22 03:32:29;;;;;;;22.25;11.02;;;;;;;14.80;96.80;101998.13;4990868;28;20165;-61
2022/07/22 03:34:54;;;;;;;21.83;11.02;;;;;;;14.80;96.44;102003.72;4990985;28;20113;-60
2022/07/22 03:37:20;;;;;;;25.42;11.90;;;;;;;14.76;96.71;101996.28;4991016;28;20370;-60
2022/07/22 03:39:45;;;;;;;23.27;12.00;;;;;;;14.77;96.54;102001.53;4991161;28;20053;-61
2022/07/22 03:42:10;;;;;;;22.08;11.68;;;;;;;14.78;96.74;102007.94;4990955;28;20065;-60
2022/07/22 03:44:36;;;;;;;22.35;12.80;;;;;;;14.75;97.12;102003.78;4990855;28;20419;-60
2022/07/22 03:47:01;;;;;;;23.02;12.13;;;;;;;14.71;97.25;102008.31;4990830;28;20030;-61
2022/07/22 03:49:29;;;;;;;21.65;11.80;;;;;;;14.71;97.39;102011.13;4991005;28;20035;-60
2022/07/22 03:51:54;;;;;;;22.13;12.32;;;;;;;14.71;97.36;102005.53;4990987;28;20092;-60
2022/07/22 03:54:20;;;;;;;23.00;11.73;;;;;;;14.73;97.26;102005.22;4990773;28;20027;-61
2022/07/22 03:56:45;;;;;;;21.67;11.65;;;;;;;14.73;97.58;102005.22;4991011;28;20489;-60
2022/07/22 03:59:10;;;;;;;21.13;11.98;;;;;;;14.73;97.42;102008.00;4990680;28;20137;-60
2022/07/22 04:01:36;;;;;;;26.00;12.93;;;;;;;14.72;97.20;102010.00;4990693;28;20037;-60
2022/07/22 04:04:01;;;;;;;23.27;12.25;;;;;;;14.72;97.22;102009.16;4990616;28;20427;-60
2022/07/22 04:06:26;;;;;;;23.38;12.20;;;;;;;14.74;97.21;102018.03;4990861;28;20030;-60
2022/07/22 04:08:52;;;;;;;21.42;12.20;;;;;;;14.76;97.00;102015.78;4990962;28;20049;-61
2022/07/22 04:11:17;;;;;;;22.75;12.57;;;;;;;14.80;96.70;102017.63;4994500;28;20479;-60
2022/07/22 04:13:42;;;;;;;24.85;12.18;;;;;;;14.84;96.35;102020.63;4994163;28;20124;-60
2022/07/22 04:16:08;;;;;;;22.42;12.25;;;;;;;14.86;96.23;102017.53;4994115;28;20528;-60
2022/07/22 04:18:33;;;;;;;22.08;12.15;;;;;;;14.92;96.23;102014.34;4994852;28;20042;-60
2022/07/22 04:20:59;;;;;;;20.75;11.77;;;;;;;14.99;95.92;102016.72;4994487;28;20054;-61
2022/07/22 04:23:25;;;;;;;23.92;12.10;;;;;;;15.01;95.19;102014.47;4994334;28;20049;-60
2022/07/22 04:25:50;;;;;;;22.83;12.38;;;;;;;15.02;95.83;102021.66;4994173;28;20074;-60
2022/07/22 04:28:16;;;;;;;21.83;11.98;;;;;;;14.96;94.93;102018.19;4994130;28;20050;-60
2022/07/22 04:30:41;;;;;;;20.65;12.25;;;;;;;15.02;95.16;102021.66;4976359;28;20038;-60
2022/07/22 04:33:07;;;;;;;22.58;11.85;;;;;;;15.06;95.32;102027.47;4994257;28;20027;-60
2022/07/22 04:35:32;;;;;;;22.45;11.70;;;;;;;15.08;95.01;102022.41;4993979;28;20038;-61
2022/07/22 04:37:57;;;;;;;21.88;10.95;;;;;;;15.07;93.94;102010.44;4993992;28;20355;-60
2022/07/22 04:40:23;;;;;;;20.13;11.45;;;;;;;15.07;93.75;102004.88;4994012;28;20057;-60
2022/07/22 04:42:49;;;;;;;23.10;11.40;;;;;;;15.09;93.98;102010.97;4993776;28;20452;-60
2022/07/22 04:45:14;;;;;;;23.70;11.52;;;;;;;15.11;93.87;102014.25;4993747;28;20386;-60
2022/07/22 04:47:39;;;;;;;21.55;11.30;;;;;;;15.11;92.98;102014.25;4976073;28;20497;-60
2022/07/22 04:50:05;;;;;;;21.70;11.43;;;;;;;15.11;93.28;102008.66;4993933;28;20391;-60
2022/07/22 04:52:30;;;;;;;18.85;11.05;;;;;;;15.12;92.48;102010.31;4993682;28;20145;-60
2022/07/22 04:54:58;;;;;;;21.15;11.02;;;;;;;15.13;92.37;102012.00;4993553;28;20049;-61
2022/07/22 04:57:24;;;;;;;22.38;11.00;;;;;;;15.15;92.95;102003.34;4993711;28;20022;-60
2022/07/22 04:59:49;;;;;;;19.40;11.00;;;;;;;15.17;93.03;102006.63;4993580;28;20316;-60
2022/07/22 05:02:14;;;;;;;22.73;11.75;;;;;;;15.20;93.21;102007.97;4993543;28;20482;-60
2022/07/22 05:04:39;;;;;;;20.58;10.77;;;;;;;15.24;93.05;102003.41;4993438;28;20305;-60
2022/07/22 05:07:05;;;;;;;20.52;10.90;;;;;;;15.29;92.96;102006.94;4993466;28;20042;-60
2022/07/22 05:09:30;;;;;;;20.33;11.43;;;;;;;15.31;92.73;102000.22;4993207;28;20022;-60
2022/07/22 05:11:55;;;;;;;21.70;11.10;;;;;;;15.34;93.42;101997.63;4993255;28;20022;-60
2022/07/22 05:14:21;;;;;;;20.90;11.50;;;;;;;15.40;92.99;102004.75;4993166;28;20026;-60
2022/07/22 05:16:46;;;;;;;20.02;11.27;;;;;;;15.50;91.94;102009.31;4993160;28;20030;-61
2022/07/22 05:19:12;;;;;;;19.75;10.55;;;;;;;15.60;90.96;102011.03;4993620;28;20026;-60
2022/07/22 05:21:37;;;;;;;21.08;10.30;;;;;;;15.61;89.36;102004.31;4991992;28;20097;-60
2022/07/22 05:24:03;;;;;;;19.73;10.27;;;;;;;15.63;90.80;101990.91;4993252;28;20030;-61
2022/07/22 05:26:29;;;;;;;20.45;10.13;;;;;;;15.75;90.92;101998.72;4993576;28;20023;-60
2022/07/22 05:28:55;;;;;;;21.38;10.70;;;;;;;15.77;89.65;102002.03;4993099;28;20051;-60
2022/07/22 05:31:20;;;;;;;18.67;10.20;;;;;;;15.86;89.16;102008.53;4993098;28;20045;-60
2022/07/22 05:33:45;;;;;;;20.50;9.88;;;;;;;15.88;88.20;102008.22;4993168;28;20030;-60
2022/07/22 05:36:11;;;;;;;22.10;10.15;;;;;;;15.97;87.67;102002.72;4993060;28;20022;-60
2022/07/22 05:38:36;;;;;;;20.00;9.70;;;;;;;16.01;87.76;102003.75;4993034;28;20031;-60
2022/07/22 05:41:02;;;;;;;20.27;8.90;;;;;;;16.05;86.55;101999.19;4993011;28;20499;-61
2022/07/22 05:43:28;;;;;;;19.40;9.07;;;;;;;16.16;85.80;102010.91;4992722;28;20069;-60
2022/07/22 05:45:54;;;;;;;19.90;8.98;;;;;;;16.20;85.46;102011.94;4975116;28;20019;-60
2022/07/22 05:48:19;;;;;;;19.27;9.10;;;;;;;16.26;85.78;102010.66;4992675;28;20030;-60
2022/07/22 05:50:44;;;;;;;18.60;9.40;;;;;;;16.33;84.91;102013.03;4992811;28;20030;-60
2022/07/22 05:53:10;;;;;;;17.52;9.00;;;;;;;16.38;84.05;102019.31;4992518;28;20063;-60
2022/07/22 05:55:35;;;;;;;18.40;9.40;;;;;;;16.41;83.89;102011.44;4992669;28;20139;-60
2022/07/22 05:58:01;;;;;;;20.75;9.95;;;;;;;16.42;84.72;102007.53;4992402;28;20034;-61
2022/07/22 06:00:26;;;;;;;20.15;9.95;;;;;;;16.43;84.25;102004.41;4992530;28;20073;-60
2022/07/22 06:02:51;;;;;;;18.33;9.57;;;;;;;16.48;84.19;102009.03;4974890;28;20030;-60
2022/07/22 06:05:17;;;;;;;18.08;8.95;;;;;;;16.43;82.48;102003.59;4992151;28;20027;-61
2022/07/22 06:07:42;;;;;;;18.48;9.40;;;;;;;16.47;84.29;101996.19;4992287;28;20030;-60
2022/07/22 06:10:07;;;;;;;19.00;9.30;;;;;;;16.66;84.54;102005.19;4992355;28;20070;-60
2022/07/22 06:12:33;;;;;;;19.67;9.73;;;;;;;16.76;83.24;102009.72;4992304;28;20034;-60
2022/07/22 06:14:58;;;;;;;19.35;9.60;;;;;;;16.78;81.78;102001.81;4992593;28;20501;-61
2022/07/22 06:17:23;;;;;;;18.08;9.52;;;;;;;16.80;84.03;102002.31;4991998;28;20479;-59
2022/07/22 06:19:49;;;;;;;21.38;9.73;;;;;;;16.89;83.06;102009.91;4992164;28;20030;-60
2022/07/22 06:22:17;;;;;;;19.90;9.50;;;;;;;17.04;82.80;102015.13;4992006;28;20030;-60
2022/07/22 06:24:42;;;;;;;19.70;9.65;;;;;;;17.16;81.83;102011.72;4992364;28;20034;-60
2022/07/22 06:27:08;;;;;;;23.00;10.05;;;;;;;17.34;81.75;102014.59;4992435;28;20077;-62
2022/07/22 06:29:33;;;;;;;19.73;9.55;;;;;;;17.34;79.57;102020.19;4991939;28;20026;-59
2022/07/22 06:31:58;;;;;;;18.60;9.23;;;;;;;17.22;78.27;102021.59;4991631;28;20038;-59
2022/07/22 06:34:24;;;;;;;22.83;9.52;;;;;;;17.19;79.32;102022.28;4992064;28;20062;-59
2022/07/22 06:36:50;;;;;;;18.00;9.63;;;;;;;17.23;78.11;102023.25;4992016;28;20026;-60
2022/07/22 06:39:15;;;;;;;20.27;9.85;;;;;;;17.17;78.20;102021.75;4974071;28;20034;-60
2022/07/22 06:41:40;;;;;;;19.15;9.98;;;;;;;17.22;78.25;102024.41;4991887;28;20081;-60
2022/07/22 06:44:06;;;;;;;18.60;9.40;;;;;;;17.30;77.51;102017.19;4991546;28;20034;-61
2022/07/22 06:46:31;;;;;;;18.65;9.70;;;;;;;17.39;77.06;102014.41;4991699;28;20018;-60
2022/07/22 06:48:56;;;;;;;18.80;9.48;;;;;;;17.38;76.12;102013.59;4991649;28;20105;-60
2022/07/22 06:51:22;;;;;;;21.75;10.52;;;;;;;17.44;76.64;102015.09;4991411;28;20037;-60
2022/07/22 06:53:47;;;;;;;20.38;9.73;;;;;;;17.57;76.11;102015.31;4991526;28;20042;-60
2022/07/22 06:56:12;;;;;;;19.38;9.73;;;;;;;17.66;75.85;102001.34;4991822;28;20037;-60
2022/07/22 06:58:38;;;;;;;20.45;9.90;;;;;;;17.77;74.87;102003.50;4991350;28;20027;-60
2022/07/22 07:01:03;;;;;;;20.58;10.95;;;;;;;17.90;73.84;102006.47;4991500;28;20113;-60
2022/07/22 07:03:29;;;;;;;19.60;10.27;;;;;;;17.98;73.36;102010.44;4991512;28;20034;-60
2022/07/22 07:05:54;;;;;;;19.80;10.73;;;;;;;17.98;74.03;102014.09;4991694;28;20065;-60
2022/07/22 07:08:20;;;;;;;21.08;11.20;;;;;;;18.01;74.69;102023.78;4991659;28;20339;-60
2022/07/22 07:10:45;;;;;;;19.20;10.93;;;;;;;18.06;74.38;102016.06;4991396;28;20335;-60
2022/07/22 07:13:10;;;;;;;20.17;10.60;;;;;;;18.28;74.62;102016.22;4991432;28;20037;-61
2022/07/22 07:15:36;;;;;;;18.30;10.32;;;;;;;18.37;72.73;102008.63;4991891;28;20442;-61
2022/07/22 07:18:01;;;;;;;21.20;10.63;;;;;;;18.30;70.35;102011.09;4970431;28;20453;-61
2022/07/22 07:20:27;;;;;;;21.90;11.50;;;;;;;18.27;70.32;102003.34;4970385;28;20023;-61
2022/07/22 07:22:52;;;;;;;18.75;10.60;;;;;;;18.49;73.98;101996.72;4971825;28;20463;-61
2022/07/22 07:25:18;;;;;;;18.58;10.20;;;;;;;18.57;70.64;101990.28;4971627;28;20027;-59
2022/07/22 07:27:43;;;;;;;19.20;10.43;;;;;;;18.69;68.96;101995.22;4971994;28;20034;-61
2022/07/22 07:30:09;;;;;;;17.52;9.98;;;;;;;18.73;67.96;101998.16;4972220;28;20062;-61
2022/07/22 07:32:36;;;;;;;18.23;11.25;;;;;;;18.72;69.32;101997.34;4971931;28;20054;-61
2022/07/22 07:35:03;;;;;;;20.73;10.95;;;;;;;18.74;66.87;101994.22;4971963;28;20052;-61
2022/07/22 07:37:28;;;;;;;18.52;9.73;;;;;;;18.84;66.09;101993.84;4971830;28;20454;-61
2022/07/22 07:39:54;;;;;;;18.00;9.77;;;;;;;18.97;67.10;101992.81;4971821;28;20106;-61
2022/07/22 07:42:19;;;;;;;17.70;9.77;;;;;;;18.89;66.43;101988.06;4971972;28;20041;-61
2022/07/22 07:44:44;;;;;;;17.08;9.10;;;;;;;18.83;64.08;101989.41;4973569;28;20059;-61
2022/07/22 07:47:10;;;;;;;20.52;10.18;;;;;;;18.91;63.40;101988.53;4976038;28;20046;-61
2022/07/22 07:49:35;;;;;;;17.98;9.00;;;;;;;19.02;64.49;101991.81;4975789;28;20115;-61
2022/07/22 07:52:01;;;;;;;17.75;8.82;;;;;;;19.03;63.56;101987.84;4975692;28;20037;-62
2022/07/22 07:54:26;;;;;;;19.00;9.07;;;;;;;18.95;62.85;101999.94;4975748;28;20030;-61
2022/07/22 07:56:52;;;;;;;16.00;8.18;;;;;;;18.97;62.65;101990.03;4975501;28;20094;-61
2022/07/22 07:59:17;;;;;;;14.07;8.30;;;;;;;19.05;62.97;101987.50;4975531;28;20115;-61
2022/07/22 08:01:43;;;;;;;17.35;7.90;;;;;;;19.26;62.08;101988.41;4975846;28;20102;-61
2022/07/22 08:04:08;;;;;;;15.18;8.38;;;;;;;19.52;62.62;101997.84;4975066;28;20407;-58
2022/07/22 08:06:34;;;;;;;18.95;8.90;;;;;;;19.72;62.65;101991.44;4975063;28;20523;-60
2022/07/22 08:08:59;;;;;;;15.63;8.20;;;;;;;19.78;59.05;101997.66;4975351;28;20023;-60
2022/07/22 08:11:24;;;;;;;11.52;7.80;;;;;;;19.79;58.42;101997.31;4975314;28;20109;-61
2022/07/22 08:13:50;;;;;;;15.55;8.07;;;;;;;19.83;59.17;101999.47;4974837;28;20026;-58
2022/07/22 08:16:16;;;;;;;13.63;7.93;;;;;;;19.74;58.64;101980.66;4975236;28;20027;-61
2022/07/22 08:18:41;;;;;;;14.02;8.02;;;;;;;19.72;57.81;101988.63;4973532;28;20086;-60
2022/07/22 08:21:06;;;;;;;12.65;8.05;;;;;;;19.68;58.19;101992.47;4975129;28;20490;-60
2022/07/22 08:23:33;;;;;;;13.88;8.20;;;;;;;19.84;58.94;101982.25;4974899;28;20499;-61
2022/07/22 08:25:58;;;;;;;12.73;8.00;;;;;;;19.84;57.79;101985.06;4975197;28;20098;-60
2022/07/22 08:28:24;;;;;;;14.27;8.52;;;;;;;19.59;58.40;101975.66;4975100;28;20442;-60
2022/07/22 08:30:49;;;;;;;15.82;8.48;;;;;;;19.51;57.44;101974.56;4975314;28;20079;-59
2022/07/22 08:33:15;;;;;;;15.85;8.50;;;;;;;19.48;58.34;101978.88;4974971;28;20019;-60
2022/07/22 08:35:41;;;;;;;13.93;8.07;;;;;;;19.45;56.85;101985.19;4974873;28;20050;-59
2022/07/22 08:38:07;;;;;;;14.85;8.13;;;;;;;19.52;57.56;101986.63;4974684;28;20023;-60
2022/07/22 08:40:32;;;;;;;13.60;8.00;;;;;;;19.66;57.28;101981.56;4974723;28;20031;-60
2022/07/22 08:43:00;;;;;;;13.35;7.97;;;;;;;19.83;55.92;101986.22;4974924;28;20035;-61
2022/07/22 08:45:28;;;;;;;12.57;8.15;;;;;;;19.83;53.92;101985.41;4975103;28;20109;-60
2022/07/22 08:47:54;;;;;;;15.30;7.97;;;;;;;19.83;55.33;101972.19;4974941;28;20034;-61
2022/07/22 08:50:19;;;;;;;14.88;7.97;;;;;;;19.85;54.34;101966.22;4974688;28;20031;-60
2022/07/22 08:52:45;;;;;;;13.40;8.05;;;;;;;20.09;55.41;101959.94;4974765;28;20027;-61
2022/07/22 08:55:10;;;;;;;16.60;8.75;;;;;;;20.31;55.31;101971.97;4973939;28;20094;-61
2022/07/22 08:57:37;;;;;;;11.73;8.00;;;;;;;20.57;55.81;101968.88;4973028;28;20038;-60
2022/07/22 09:00:10;;;;;;;14.60;8.30;;;;;;;20.85;57.33;101959.81;4974620;28;20023;-61
2022/07/22 09:02:40;;;;;;;13.27;8.15;;;;;;;21.10;54.28;101963.47;4974541;28;20026;-60
2022/07/22 09:05:08;;;;;;;13.07;8.00;;;;;;;21.15;52.46;101971.66;4974376;28;20031;-61
2022/07/22 09:07:38;;;;;;;14.27;8.30;;;;;;;20.80;53.33;101966.50;4974234;28;20053;-61
2022/07/22 09:10:10;;;;;;;14.80;8.32;;;;;;;20.44;53.74;101961.56;4974486;28;20027;-59
2022/07/22 09:12:51;;;;;;;14.43;7.90;;;;;;;20.57;54.95;101966.88;4974292;28;20054;-59
2022/07/22 09:15:31;;;;;;;15.15;8.25;;;;;;;20.39;53.80;101959.81;4974163;28;20089;-59
2022/07/22 09:17:58;;;;;;;13.77;8.05;;;;;;;20.44;54.15;101979.28;4984436;28;20431;-61
2022/07/22 09:20:25;;;;;;;12.52;7.85;;;;;;;20.45;53.23;101978.09;4993418;28;20042;-61
2022/07/22 09:22:51;;;;;;;14.30;7.97;;;;;;;20.52;53.66;101971.91;4993167;28;20129;-60
2022/07/22 09:25:18;;;;;;;15.77;8.77;;;;;;;20.61;54.66;101972.63;4993067;28;20343;-59
2022/07/22 09:27:43;;;;;;;13.90;8.45;;;;;;;20.67;54.77;101967.59;4993331;28;20106;-59
2022/07/22 09:30:16;;;;;;;14.52;8.40;;;;;;;20.65;53.72;101961.50;4993116;28;20407;-59
2022/07/22 09:32:43;;;;;;;16.13;8.70;;;;;;;20.47;53.53;101961.69;4992909;28;20046;-59
2022/07/22 09:35:10;;;;;;;14.73;8.63;;;;;;;20.40;55.42;101964.25;4992966;28;20057;-59
2022/07/22 09:37:55;;;;;;;15.27;8.75;;;;;;;20.23;54.46;101965.25;4992905;28;20037;-59
2022/07/22 09:40:22;;;;;;;15.35;9.10;;;;;;;19.98;55.43;101965.16;4992763;28;20495;-59
2022/07/22 09:42:54;;;;;;;16.13;9.45;;;;;;;20.14;55.10;101961.69;4992625;28;20434;-60
2022/07/22 09:45:21;;;;;;;15.38;9.60;;;;;;;20.24;55.39;101964.91;4992656;28;20026;-60
2022/07/22 09:47:48;;;;;;;16.95;9.68;;;;;;;20.13;55.08;101965.66;4992608;28;20038;-59
2022/07/22 09:50:23;;;;;;;19.17;9.73;;;;;;;20.12;54.88;101950.81;4992760;28;20025;-61
2022/07/22 09:52:50;;;;;;;14.05;8.93;;;;;;;20.32;56.79;101943.50;4992937;28;20026;-61
2022/07/22 09:55:19;;;;;;;14.38;8.60;;;;;;;20.57;54.71;101938.75;4992733;28;20494;-60
2022/07/22 09:57:45;;;;;;;13.95;8.70;;;;;;;20.82;53.14;101955.72;4992545;28;20033;-60
2022/07/22 10:00:12;;;;;;;13.52;8.70;;;;;;;20.90;54.22;101937.06;4992546;28;20081;-61
2022/07/22 10:02:46;;;;;;;15.38;9.00;;;;;;;21.25;53.82;101939.44;4992587;28;20088;-60
2022/07/22 10:05:13;;;;;;;15.50;9.18;;;;;;;21.52;53.54;101945.47;4992732;28;20046;-60
2022/07/22 10:07:41;;;;;;;17.05;9.68;;;;;;;21.77;50.69;101951.06;4991989;28;20031;-60
2022/07/22 10:10:09;;;;;;;17.02;9.35;;;;;;;22.19;52.84;101950.69;4992576;28;20041;-61
2022/07/22 10:12:36;;;;;;;17.33;9.38;;;;;;;22.33;51.20;101941.81;4992627;28;20050;-60
2022/07/22 10:15:02;;;;;;;15.02;9.43;;;;;;;22.46;51.22;101936.94;4992835;28;20034;-60
2022/07/22 10:17:28;;;;;;;15.98;9.63;;;;;;;22.66;50.04;101951.97;4992315;28;20084;-60
2022/07/22 10:19:54;;;;;;;15.30;9.98;;;;;;;22.68;48.88;101958.06;4992249;28;20030;-60
2022/07/22 10:22:38;;;;;;;16.85;10.20;;;;;;;22.96;50.01;101959.97;4992052;28;20049;-60
2022/07/22 10:25:04;;;;;;;14.05;9.82;;;;;;;23.01;48.85;101951.22;4991765;28;20122;-60
2022/07/22 10:27:52;;;;;;;17.95;10.02;;;;;;;23.12;49.18;101950.66;4992013;28;20030;-60
2022/07/22 10:30:27;;;;;;;16.58;10.13;;;;;;;22.59;48.49;101948.94;4992123;28;20033;-60
2022/07/22 10:33:11;;;;;;;17.02;9.60;;;;;;;22.38;50.21;101952.00;4991935;28;20487;-60
2022/07/22 10:35:53;;;;;;;16.25;9.77;;;;;;;22.19;50.26;101955.47;4992017;28;20030;-59
2022/07/22 10:38:21;;;;;;;20.02;10.38;;;;;;;21.73;50.70;101958.56;4992124;28;20081;-60
2022/07/22 10:40:49;;;;;;;18.25;10.32;;;;;;;21.15;51.57;101940.72;4991815;28;20030;-60
2022/07/22 10:43:17;;;;;;;18.40;9.88;;;;;;;21.23;51.64;101960.63;4991677;28;20559;-60
2022/07/22 10:45:56;;;;;;;16.92;10.10;;;;;;;21.38;51.87;101950.66;4973709;28;20034;-60
2022/07/22 10:48:41;;;;;;;16.35;9.45;;;;;;;21.49;51.87;101952.63;4991469;28;20391;-60
2022/07/22 10:51:07;;;;;;;17.48;9.73;;;;;;;21.26;51.38;101960.75;4980509;28;20061;-60
2022/07/22 10:53:46;;;;;;;14.13;8.85;;;;;;;21.25;51.91;101952.66;4991338;28;20343;-61
2022/07/22 10:56:19;;;;;;;18.42;9.20;;;;;;;21.00;51.50;101945.06;4974219;28;20033;-62
2022/07/22 10:58:51;;;;;;;18.75;9.82;;;;;;;21.04;53.24;101948.81;4992518;28;20034;-61
2022/07/22 11:01:19;;;;;;;18.25;10.23;;;;;;;21.31;51.23;101943.63;4992213;28;20026;-62
2022/07/22 11:03:46;;;;;;;15.73;9.20;;;;;;;21.93;50.70;101939.88;4991578;28;20101;-60
2022/07/22 11:06:23;;;;;;;16.67;9.25;;;;;;;22.44;50.35;101933.66;4973595;28;20033;-60
2022/07/22 11:09:00;;;;;;;16.55;9.45;;;;;;;22.70;48.65;101926.66;4991309;28;20502;-60